sensor_id;sensor_type;location;lat;lon;timestamp;P1;durP1;ratioP1;P2;durP2;ratioP2
5696;SDS011;2873;50.966;7.210;2023-09-19T00:01:15;1.50;;;1.40;;
5696;SDS011;2873;50.966;7.210;2023-09-19T00:03:46;6.57;;;1.50;;
5696;SDS011;2873;50.966;7.210;2023-09-19T00:06:12;2.50;;;1.73;;
5696;SDS011;2873;50.966;7.210;2023-09-19T00:08:40;2.30;;;1.58;;
5696;SDS011;2873;50.966;7.210;2023-09-19T00:11:09;6.00;;;1.70;;
5696;SDS011;2873;50.966;7.210;2023-09-19T00:13:35;6.57;;;1.80;;
5696;SDS011;2873;50.966;7.210;2023-09-19T00:16:01;9.43;;;2.30;;
5696;SDS011;2873;50.966;7.210;2023-09-19T00:18:33;4.40;;;1.70;;
5696;SDS011;2873;50.966;7.210;2023-09-19T00:20:59;3.45;;;1.55;;
5696;SDS011;2873;50.966;7.210;2023-09-19T00:23:25;3.10;;;1.50;;
5696;SDS011;2873;50.966;7.210;2023-09-19T00:25:52;3.83;;;1.70;;
5696;SDS011;2873;50.966;7.210;2023-09-19T00:28:22;4.65;;;1.50;;
5696;SDS011;2873;50.966;7.210;2023-09-19T00:30:48;4.60;;;1.40;;
5696;SDS011;2873;50.966;7.210;2023-09-19T00:33:16;1.40;;;1.30;;
5696;SDS011;2873;50.966;7.210;2023-09-19T00:35:47;4.80;;;1.60;;
5696;SDS011;2873;50.966;7.210;2023-09-19T00:38:17;3.17;;;1.38;;
5696;SDS011;2873;50.966;7.210;2023-09-19T00:40:46;5.70;;;1.80;;
5696;SDS011;2873;50.966;7.210;2023-09-19T00:43:13;5.97;;;1.33;;
5696;SDS011;2873;50.966;7.210;2023-09-19T00:45:38;1.40;;;1.20;;
5696;SDS011;2873;50.966;7.210;2023-09-19T00:48:09;4.57;;;1.60;;
5696;SDS011;2873;50.966;7.210;2023-09-19T00:50:35;1.95;;;1.40;;
5696;SDS011;2873;50.966;7.210;2023-09-19T00:53:01;5.53;;;1.30;;
5696;SDS011;2873;50.966;7.210;2023-09-19T00:55:34;3.40;;;1.50;;
5696;SDS011;2873;50.966;7.210;2023-09-19T00:58:02;3.10;;;1.57;;
5696;SDS011;2873;50.966;7.210;2023-09-19T01:00:28;5.90;;;1.63;;
5696;SDS011;2873;50.966;7.210;2023-09-19T01:02:54;6.15;;;1.70;;
5696;SDS011;2873;50.966;7.210;2023-09-19T01:05:20;5.43;;;1.80;;
5696;SDS011;2873;50.966;7.210;2023-09-19T01:07:46;1.70;;;1.60;;
5696;SDS011;2873;50.966;7.210;2023-09-19T01:10:14;5.10;;;1.60;;
5696;SDS011;2873;50.966;7.210;2023-09-19T01:12:45;3.20;;;1.70;;
5696;SDS011;2873;50.966;7.210;2023-09-19T01:17:57;5.80;;;1.83;;
5696;SDS011;2873;50.966;7.210;2023-09-19T01:20:53;5.68;;;1.33;;
5696;SDS011;2873;50.966;7.210;2023-09-19T01:26:18;7.40;;;1.65;;
5696;SDS011;2873;50.966;7.210;2023-09-19T01:29:17;3.13;;;1.30;;
5696;SDS011;2873;50.966;7.210;2023-09-19T01:32:01;2.75;;;1.50;;
5696;SDS011;2873;50.966;7.210;2023-09-19T01:34:49;5.18;;;1.80;;
5696;SDS011;2873;50.966;7.210;2023-09-19T01:37:21;10.57;;;1.90;;
5696;SDS011;2873;50.966;7.210;2023-09-19T01:40:02;8.32;;;1.90;;
5696;SDS011;2873;50.966;7.210;2023-09-19T01:43:00;4.28;;;1.50;;
5696;SDS011;2873;50.966;7.210;2023-09-19T01:46:03;3.38;;;1.40;;
5696;SDS011;2873;50.966;7.210;2023-09-19T01:48:46;3.03;;;1.42;;
5696;SDS011;2873;50.966;7.210;2023-09-19T01:51:32;3.90;;;1.70;;
5696;SDS011;2873;50.966;7.210;2023-09-19T01:54:00;5.93;;;2.40;;
5696;SDS011;2873;50.966;7.210;2023-09-19T01:56:30;3.60;;;1.98;;
5696;SDS011;2873;50.966;7.210;2023-09-19T01:59:07;3.50;;;1.50;;
5696;SDS011;2873;50.966;7.210;2023-09-19T02:01:38;3.30;;;1.65;;
5696;SDS011;2873;50.966;7.210;2023-09-19T02:04:05;2.33;;;1.60;;
5696;SDS011;2873;50.966;7.210;2023-09-19T02:06:32;4.40;;;1.80;;
5696;SDS011;2873;50.966;7.210;2023-09-19T02:08:58;2.70;;;1.30;;
5696;SDS011;2873;50.966;7.210;2023-09-19T02:11:24;9.40;;;1.77;;
5696;SDS011;2873;50.966;7.210;2023-09-19T02:13:50;5.45;;;1.40;;
5696;SDS011;2873;50.966;7.210;2023-09-19T02:16:19;8.20;;;1.87;;
5696;SDS011;2873;50.966;7.210;2023-09-19T02:18:45;7.77;;;1.87;;
5696;SDS011;2873;50.966;7.210;2023-09-19T02:21:17;9.20;;;1.98;;
5696;SDS011;2873;50.966;7.210;2023-09-19T02:23:43;3.10;;;1.40;;
5696;SDS011;2873;50.966;7.210;2023-09-19T02:26:10;3.95;;;1.90;;
5696;SDS011;2873;50.966;7.210;2023-09-19T02:28:37;7.07;;;1.85;;
5696;SDS011;2873;50.966;7.210;2023-09-19T02:31:02;4.90;;;1.50;;
5696;SDS011;2873;50.966;7.210;2023-09-19T02:33:30;5.35;;;1.73;;
5696;SDS011;2873;50.966;7.210;2023-09-19T02:35:57;7.60;;;1.77;;
5696;SDS011;2873;50.966;7.210;2023-09-19T02:38:27;7.88;;;2.08;;
5696;SDS011;2873;50.966;7.210;2023-09-19T02:40:54;3.80;;;1.40;;
5696;SDS011;2873;50.966;7.210;2023-09-19T02:43:22;7.60;;;1.80;;
5696;SDS011;2873;50.966;7.210;2023-09-19T02:45:48;9.23;;;1.75;;
5696;SDS011;2873;50.966;7.210;2023-09-19T02:48:15;6.78;;;1.60;;
5696;SDS011;2873;50.966;7.210;2023-09-19T02:50:43;6.07;;;1.70;;
5696;SDS011;2873;50.966;7.210;2023-09-19T02:53:09;3.20;;;1.60;;
5696;SDS011;2873;50.966;7.210;2023-09-19T02:55:37;4.78;;;1.50;;
5696;SDS011;2873;50.966;7.210;2023-09-19T02:58:05;6.80;;;1.70;;
5696;SDS011;2873;50.966;7.210;2023-09-19T03:00:33;4.68;;;1.73;;
5696;SDS011;2873;50.966;7.210;2023-09-19T03:03:00;5.67;;;1.93;;
5696;SDS011;2873;50.966;7.210;2023-09-19T03:05:27;6.90;;;1.70;;
5696;SDS011;2873;50.966;7.210;2023-09-19T03:07:55;8.52;;;2.25;;
5696;SDS011;2873;50.966;7.210;2023-09-19T03:10:21;7.35;;;1.60;;
5696;SDS011;2873;50.966;7.210;2023-09-19T03:12:48;4.18;;;1.38;;
5696;SDS011;2873;50.966;7.210;2023-09-19T03:15:14;10.25;;;1.58;;
5696;SDS011;2873;50.966;7.210;2023-09-19T03:17:47;6.20;;;1.70;;
5696;SDS011;2873;50.966;7.210;2023-09-19T03:20:13;12.95;;;1.80;;
5696;SDS011;2873;50.966;7.210;2023-09-19T03:22:45;3.70;;;1.70;;
5696;SDS011;2873;50.966;7.210;2023-09-19T03:25:11;5.10;;;1.50;;
5696;SDS011;2873;50.966;7.210;2023-09-19T03:27:39;9.70;;;2.30;;
5696;SDS011;2873;50.966;7.210;2023-09-19T03:30:06;3.22;;;1.40;;
5696;SDS011;2873;50.966;7.210;2023-09-19T03:32:36;3.75;;;1.40;;
5696;SDS011;2873;50.966;7.210;2023-09-19T03:35:08;11.80;;;1.70;;
5696;SDS011;2873;50.966;7.210;2023-09-19T03:37:40;7.30;;;1.70;;
5696;SDS011;2873;50.966;7.210;2023-09-19T03:40:07;5.93;;;1.60;;
5696;SDS011;2873;50.966;7.210;2023-09-19T03:42:33;5.22;;;1.70;;
5696;SDS011;2873;50.966;7.210;2023-09-19T03:45:01;9.97;;;1.80;;
5696;SDS011;2873;50.966;7.210;2023-09-19T03:47:31;10.20;;;1.80;;
5696;SDS011;2873;50.966;7.210;2023-09-19T03:49:57;4.43;;;1.60;;
5696;SDS011;2873;50.966;7.210;2023-09-19T03:52:23;4.03;;;1.92;;
5696;SDS011;2873;50.966;7.210;2023-09-19T03:54:50;12.20;;;2.17;;
5696;SDS011;2873;50.966;7.210;2023-09-19T03:57:15;5.60;;;1.60;;
5696;SDS011;2873;50.966;7.210;2023-09-19T03:59:45;8.27;;;1.80;;
5696;SDS011;2873;50.966;7.210;2023-09-19T04:02:11;6.60;;;1.80;;
5696;SDS011;2873;50.966;7.210;2023-09-19T04:04:47;7.75;;;1.60;;
5696;SDS011;2873;50.966;7.210;2023-09-19T04:07:13;6.82;;;1.70;;
5696;SDS011;2873;50.966;7.210;2023-09-19T04:09:38;10.65;;;2.10;;
5696;SDS011;2873;50.966;7.210;2023-09-19T04:12:04;7.63;;;2.10;;
5696;SDS011;2873;50.966;7.210;2023-09-19T04:14:30;6.28;;;1.63;;
5696;SDS011;2873;50.966;7.210;2023-09-19T04:16:56;9.53;;;2.10;;
5696;SDS011;2873;50.966;7.210;2023-09-19T04:19:21;7.77;;;1.80;;
5696;SDS011;2873;50.966;7.210;2023-09-19T04:21:47;7.03;;;1.70;;
5696;SDS011;2873;50.966;7.210;2023-09-19T04:24:12;16.37;;;2.10;;
5696;SDS011;2873;50.966;7.210;2023-09-19T04:26:38;7.13;;;2.10;;
5696;SDS011;2873;50.966;7.210;2023-09-19T04:29:04;10.00;;;2.13;;
5696;SDS011;2873;50.966;7.210;2023-09-19T04:31:31;8.43;;;1.70;;
5696;SDS011;2873;50.966;7.210;2023-09-19T04:33:56;5.47;;;1.50;;
5696;SDS011;2873;50.966;7.210;2023-09-19T04:36:24;11.85;;;1.90;;
5696;SDS011;2873;50.966;7.210;2023-09-19T04:38:49;8.50;;;1.70;;
5696;SDS011;2873;50.966;7.210;2023-09-19T04:41:15;7.38;;;1.83;;
5696;SDS011;2873;50.966;7.210;2023-09-19T04:43:40;14.20;;;2.07;;
5696;SDS011;2873;50.966;7.210;2023-09-19T04:46:06;10.83;;;1.80;;
5696;SDS011;2873;50.966;7.210;2023-09-19T04:48:32;11.60;;;1.63;;
5696;SDS011;2873;50.966;7.210;2023-09-19T04:50:59;7.82;;;2.17;;
5696;SDS011;2873;50.966;7.210;2023-09-19T04:53:25;6.68;;;2.17;;
5696;SDS011;2873;50.966;7.210;2023-09-19T04:55:51;5.97;;;1.70;;
5696;SDS011;2873;50.966;7.210;2023-09-19T04:58:20;7.32;;;1.65;;
5696;SDS011;2873;50.966;7.210;2023-09-19T05:00:47;7.22;;;2.10;;
5696;SDS011;2873;50.966;7.210;2023-09-19T05:03:12;4.90;;;1.40;;
5696;SDS011;2873;50.966;7.210;2023-09-19T05:05:38;6.03;;;2.17;;
5696;SDS011;2873;50.966;7.210;2023-09-19T05:08:06;9.15;;;2.03;;
5696;SDS011;2873;50.966;7.210;2023-09-19T05:10:34;6.93;;;1.88;;
5696;SDS011;2873;50.966;7.210;2023-09-19T05:13:03;5.30;;;1.90;;
5696;SDS011;2873;50.966;7.210;2023-09-19T05:15:29;12.10;;;1.90;;
5696;SDS011;2873;50.966;7.210;2023-09-19T05:17:56;5.97;;;2.10;;
5696;SDS011;2873;50.966;7.210;2023-09-19T05:20:21;4.83;;;1.70;;
5696;SDS011;2873;50.966;7.210;2023-09-19T05:23:01;4.93;;;1.58;;
5696;SDS011;2873;50.966;7.210;2023-09-19T05:25:34;8.70;;;1.70;;
5696;SDS011;2873;50.966;7.210;2023-09-19T05:28:04;7.60;;;1.90;;
5696;SDS011;2873;50.966;7.210;2023-09-19T05:30:33;5.55;;;1.42;;
5696;SDS011;2873;50.966;7.210;2023-09-19T05:33:01;6.22;;;1.50;;
5696;SDS011;2873;50.966;7.210;2023-09-19T05:35:27;7.50;;;2.00;;
5696;SDS011;2873;50.966;7.210;2023-09-19T05:37:53;5.07;;;1.73;;
5696;SDS011;2873;50.966;7.210;2023-09-19T05:40:20;7.47;;;1.80;;
5696;SDS011;2873;50.966;7.210;2023-09-19T05:42:46;7.90;;;1.83;;
5696;SDS011;2873;50.966;7.210;2023-09-19T05:45:12;5.43;;;1.48;;
5696;SDS011;2873;50.966;7.210;2023-09-19T05:47:39;6.15;;;1.83;;
5696;SDS011;2873;50.966;7.210;2023-09-19T05:50:06;4.90;;;2.00;;
5696;SDS011;2873;50.966;7.210;2023-09-19T05:52:34;7.13;;;1.70;;
5696;SDS011;2873;50.966;7.210;2023-09-19T05:55:05;5.90;;;1.70;;
5696;SDS011;2873;50.966;7.210;2023-09-19T05:57:32;6.57;;;1.70;;
5696;SDS011;2873;50.966;7.210;2023-09-19T05:59:59;7.72;;;1.80;;
5696;SDS011;2873;50.966;7.210;2023-09-19T06:02:24;11.07;;;1.80;;
5696;SDS011;2873;50.966;7.210;2023-09-19T06:04:55;7.88;;;1.67;;
5696;SDS011;2873;50.966;7.210;2023-09-19T06:07:23;2.75;;;1.50;;
5696;SDS011;2873;50.966;7.210;2023-09-19T06:09:51;10.40;;;1.75;;
5696;SDS011;2873;50.966;7.210;2023-09-19T06:12:21;9.45;;;1.98;;
5696;SDS011;2873;50.966;7.210;2023-09-19T06:14:46;5.70;;;1.90;;
5696;SDS011;2873;50.966;7.210;2023-09-19T06:17:13;5.63;;;1.65;;
5696;SDS011;2873;50.966;7.210;2023-09-19T06:19:39;6.75;;;1.70;;
5696;SDS011;2873;50.966;7.210;2023-09-19T06:22:04;6.40;;;1.77;;
5696;SDS011;2873;50.966;7.210;2023-09-19T06:24:30;5.43;;;1.50;;
5696;SDS011;2873;50.966;7.210;2023-09-19T06:26:56;7.53;;;1.67;;
5696;SDS011;2873;50.966;7.210;2023-09-19T06:29:21;4.57;;;2.10;;
5696;SDS011;2873;50.966;7.210;2023-09-19T06:31:48;10.90;;;1.73;;
5696;SDS011;2873;50.966;7.210;2023-09-19T06:34:13;11.57;;;1.90;;
5696;SDS011;2873;50.966;7.210;2023-09-19T06:36:40;10.07;;;2.35;;
5696;SDS011;2873;50.966;7.210;2023-09-19T06:39:06;7.80;;;1.63;;
5696;SDS011;2873;50.966;7.210;2023-09-19T06:41:38;9.90;;;2.00;;
5696;SDS011;2873;50.966;7.210;2023-09-19T06:44:04;9.88;;;2.10;;
5696;SDS011;2873;50.966;7.210;2023-09-19T06:46:30;6.55;;;1.70;;
5696;SDS011;2873;50.966;7.210;2023-09-19T06:48:59;7.13;;;1.75;;
5696;SDS011;2873;50.966;7.210;2023-09-19T06:51:28;9.82;;;1.80;;
5696;SDS011;2873;50.966;7.210;2023-09-19T06:53:54;3.65;;;1.52;;
5696;SDS011;2873;50.966;7.210;2023-09-19T06:56:22;5.38;;;1.70;;
5696;SDS011;2873;50.966;7.210;2023-09-19T06:58:49;6.93;;;1.77;;
5696;SDS011;2873;50.966;7.210;2023-09-19T07:01:15;7.00;;;1.67;;
5696;SDS011;2873;50.966;7.210;2023-09-19T07:03:40;8.07;;;2.00;;
5696;SDS011;2873;50.966;7.210;2023-09-19T07:06:08;4.95;;;1.52;;
5696;SDS011;2873;50.966;7.210;2023-09-19T07:08:37;5.88;;;1.80;;
5696;SDS011;2873;50.966;7.210;2023-09-19T07:11:03;11.48;;;2.45;;
5696;SDS011;2873;50.966;7.210;2023-09-19T07:13:31;6.57;;;1.98;;
5696;SDS011;2873;50.966;7.210;2023-09-19T07:15:58;4.78;;;1.90;;
5696;SDS011;2873;50.966;7.210;2023-09-19T07:18:24;3.65;;;1.75;;
5696;SDS011;2873;50.966;7.210;2023-09-19T07:20:50;8.23;;;1.97;;
5696;SDS011;2873;50.966;7.210;2023-09-19T07:23:17;8.27;;;2.03;;
5696;SDS011;2873;50.966;7.210;2023-09-19T07:25:43;7.13;;;1.98;;
5696;SDS011;2873;50.966;7.210;2023-09-19T07:28:09;4.70;;;1.50;;
5696;SDS011;2873;50.966;7.210;2023-09-19T07:30:36;6.40;;;1.90;;
5696;SDS011;2873;50.966;7.210;2023-09-19T07:33:06;4.45;;;1.83;;
5696;SDS011;2873;50.966;7.210;2023-09-19T07:35:32;6.20;;;2.00;;
5696;SDS011;2873;50.966;7.210;2023-09-19T07:37:58;6.00;;;1.80;;
5696;SDS011;2873;50.966;7.210;2023-09-19T07:40:26;5.72;;;1.63;;
5696;SDS011;2873;50.966;7.210;2023-09-19T07:42:53;4.93;;;1.63;;
5696;SDS011;2873;50.966;7.210;2023-09-19T07:45:21;4.57;;;1.60;;
5696;SDS011;2873;50.966;7.210;2023-09-19T07:47:48;4.80;;;1.80;;
5696;SDS011;2873;50.966;7.210;2023-09-19T07:50:16;6.75;;;1.92;;
5696;SDS011;2873;50.966;7.210;2023-09-19T07:52:46;4.50;;;1.60;;
5696;SDS011;2873;50.966;7.210;2023-09-19T07:55:12;7.07;;;1.70;;
5696;SDS011;2873;50.966;7.210;2023-09-19T07:57:44;3.28;;;1.75;;
5696;SDS011;2873;50.966;7.210;2023-09-19T08:00:11;6.88;;;2.13;;
5696;SDS011;2873;50.966;7.210;2023-09-19T08:02:37;6.07;;;1.73;;
5696;SDS011;2873;50.966;7.210;2023-09-19T08:05:05;3.75;;;1.80;;
5696;SDS011;2873;50.966;7.210;2023-09-19T08:07:40;6.90;;;1.80;;
5696;SDS011;2873;50.966;7.210;2023-09-19T08:10:08;8.45;;;2.10;;
5696;SDS011;2873;50.966;7.210;2023-09-19T08:12:41;11.55;;;2.20;;
5696;SDS011;2873;50.966;7.210;2023-09-19T08:15:20;5.57;;;1.73;;
5696;SDS011;2873;50.966;7.210;2023-09-19T08:17:46;6.28;;;1.70;;
5696;SDS011;2873;50.966;7.210;2023-09-19T08:20:12;5.90;;;1.92;;
5696;SDS011;2873;50.966;7.210;2023-09-19T08:22:48;6.70;;;1.83;;
5696;SDS011;2873;50.966;7.210;2023-09-19T08:25:19;9.77;;;1.70;;
5696;SDS011;2873;50.966;7.210;2023-09-19T08:27:46;12.52;;;2.10;;
5696;SDS011;2873;50.966;7.210;2023-09-19T08:30:23;6.70;;;1.57;;
5696;SDS011;2873;50.966;7.210;2023-09-19T08:33:01;5.35;;;1.88;;
5696;SDS011;2873;50.966;7.210;2023-09-19T08:35:29;6.67;;;2.10;;
5696;SDS011;2873;50.966;7.210;2023-09-19T08:37:55;6.13;;;1.60;;
5696;SDS011;2873;50.966;7.210;2023-09-19T08:40:21;3.72;;;1.20;;
5696;SDS011;2873;50.966;7.210;2023-09-19T08:42:47;5.27;;;1.80;;
5696;SDS011;2873;50.966;7.210;2023-09-19T08:45:14;10.95;;;1.73;;
5696;SDS011;2873;50.966;7.210;2023-09-19T08:47:44;4.50;;;1.40;;
5696;SDS011;2873;50.966;7.210;2023-09-19T08:52:49;6.97;;;1.88;;
5696;SDS011;2873;50.966;7.210;2023-09-19T08:55:19;5.95;;;1.90;;
5696;SDS011;2873;50.966;7.210;2023-09-19T08:57:49;6.68;;;2.00;;
5696;SDS011;2873;50.966;7.210;2023-09-19T09:00:16;6.50;;;2.08;;
5696;SDS011;2873;50.966;7.210;2023-09-19T09:02:43;9.95;;;2.20;;
5696;SDS011;2873;50.966;7.210;2023-09-19T09:05:10;5.60;;;1.77;;
5696;SDS011;2873;50.966;7.210;2023-09-19T09:07:39;8.50;;;1.80;;
5696;SDS011;2873;50.966;7.210;2023-09-19T09:10:06;7.15;;;1.70;;
5696;SDS011;2873;50.966;7.210;2023-09-19T09:12:32;6.55;;;1.80;;
5696;SDS011;2873;50.966;7.210;2023-09-19T09:15:01;9.23;;;1.90;;
5696;SDS011;2873;50.966;7.210;2023-09-19T09:17:28;12.60;;;1.90;;
5696;SDS011;2873;50.966;7.210;2023-09-19T09:19:54;5.30;;;1.50;;
5696;SDS011;2873;50.966;7.210;2023-09-19T09:22:20;7.70;;;1.70;;
5696;SDS011;2873;50.966;7.210;2023-09-19T09:24:58;14.82;;;2.20;;
5696;SDS011;2873;50.966;7.210;2023-09-19T09:27:28;6.70;;;1.90;;
5696;SDS011;2873;50.966;7.210;2023-09-19T09:29:54;4.18;;;2.20;;
5696;SDS011;2873;50.966;7.210;2023-09-19T09:32:20;8.60;;;1.67;;
5696;SDS011;2873;50.966;7.210;2023-09-19T09:34:54;12.30;;;2.30;;
5696;SDS011;2873;50.966;7.210;2023-09-19T09:37:22;9.27;;;1.70;;
5696;SDS011;2873;50.966;7.210;2023-09-19T09:39:50;2.97;;;1.35;;
5696;SDS011;2873;50.966;7.210;2023-09-19T09:42:28;8.13;;;1.90;;
5696;SDS011;2873;50.966;7.210;2023-09-19T09:45:16;5.00;;;1.33;;
5696;SDS011;2873;50.966;7.210;2023-09-19T09:47:59;5.80;;;1.70;;
5696;SDS011;2873;50.966;7.210;2023-09-19T09:50:29;8.25;;;1.60;;
5696;SDS011;2873;50.966;7.210;2023-09-19T09:53:28;7.30;;;1.67;;
5696;SDS011;2873;50.966;7.210;2023-09-19T09:56:01;4.30;;;1.70;;
5696;SDS011;2873;50.966;7.210;2023-09-19T10:01:13;5.45;;;1.65;;
5696;SDS011;2873;50.966;7.210;2023-09-19T10:03:41;8.63;;;2.15;;
5696;SDS011;2873;50.966;7.210;2023-09-19T10:06:14;5.28;;;1.50;;
5696;SDS011;2873;50.966;7.210;2023-09-19T10:09:05;3.47;;;1.60;;
5696;SDS011;2873;50.966;7.210;2023-09-19T10:11:35;4.15;;;1.60;;
5696;SDS011;2873;50.966;7.210;2023-09-19T10:14:10;5.27;;;1.60;;
5696;SDS011;2873;50.966;7.210;2023-09-19T10:16:45;6.60;;;1.30;;
5696;SDS011;2873;50.966;7.210;2023-09-19T10:19:14;2.35;;;1.00;;
5696;SDS011;2873;50.966;7.210;2023-09-19T10:21:55;4.80;;;1.73;;
5696;SDS011;2873;50.966;7.210;2023-09-19T10:24:22;6.70;;;1.30;;
5696;SDS011;2873;50.966;7.210;2023-09-19T10:26:50;4.88;;;1.50;;
5696;SDS011;2873;50.966;7.210;2023-09-19T10:29:16;4.18;;;1.60;;
5696;SDS011;2873;50.966;7.210;2023-09-19T10:31:43;4.07;;;1.45;;
5696;SDS011;2873;50.966;7.210;2023-09-19T10:34:13;6.20;;;1.50;;
5696;SDS011;2873;50.966;7.210;2023-09-19T10:36:40;4.38;;;1.40;;
5696;SDS011;2873;50.966;7.210;2023-09-19T10:39:10;3.97;;;1.30;;
5696;SDS011;2873;50.966;7.210;2023-09-19T10:41:38;4.68;;;2.00;;
5696;SDS011;2873;50.966;7.210;2023-09-19T10:44:05;7.50;;;1.60;;
5696;SDS011;2873;50.966;7.210;2023-09-19T10:46:31;4.28;;;1.50;;
5696;SDS011;2873;50.966;7.210;2023-09-19T10:49:00;4.38;;;1.33;;
5696;SDS011;2873;50.966;7.210;2023-09-19T10:51:29;3.90;;;1.40;;
5696;SDS011;2873;50.966;7.210;2023-09-19T10:54:14;4.85;;;1.70;;
5696;SDS011;2873;50.966;7.210;2023-09-19T10:56:48;5.90;;;1.67;;
5696;SDS011;2873;50.966;7.210;2023-09-19T10:59:18;5.50;;;1.67;;
5696;SDS011;2873;50.966;7.210;2023-09-19T11:01:52;2.80;;;1.30;;
5696;SDS011;2873;50.966;7.210;2023-09-19T11:04:26;5.20;;;1.40;;
5696;SDS011;2873;50.966;7.210;2023-09-19T11:07:10;3.30;;;1.23;;
5696;SDS011;2873;50.966;7.210;2023-09-19T11:09:50;3.87;;;1.40;;
5696;SDS011;2873;50.966;7.210;2023-09-19T11:14:57;5.45;;;1.70;;
5696;SDS011;2873;50.966;7.210;2023-09-19T11:17:30;4.07;;;1.45;;
5696;SDS011;2873;50.966;7.210;2023-09-19T11:28:37;4.35;;;1.10;;
5696;SDS011;2873;50.966;7.210;2023-09-19T11:30:47;4.43;;;1.70;;
5696;SDS011;2873;50.966;7.210;2023-09-19T11:33:32;3.10;;;1.50;;
5696;SDS011;2873;50.966;7.210;2023-09-19T11:36:13;5.13;;;1.60;;
5696;SDS011;2873;50.966;7.210;2023-09-19T11:43:50;4.70;;;1.40;;
5696;SDS011;2873;50.966;7.210;2023-09-19T11:46:26;3.67;;;1.42;;
5696;SDS011;2873;50.966;7.210;2023-09-19T11:48:53;4.30;;;1.20;;
5696;SDS011;2873;50.966;7.210;2023-09-19T11:53:57;4.82;;;1.50;;
5696;SDS011;2873;50.966;7.210;2023-09-19T11:56:32;5.00;;;1.40;;
5696;SDS011;2873;50.966;7.210;2023-09-19T11:59:06;3.35;;;1.45;;
5696;SDS011;2873;50.966;7.210;2023-09-19T12:01:33;2.20;;;1.20;;
5696;SDS011;2873;50.966;7.210;2023-09-19T12:04:00;3.30;;;1.30;;
5696;SDS011;2873;50.966;7.210;2023-09-19T12:06:27;6.30;;;1.60;;
5696;SDS011;2873;50.966;7.210;2023-09-19T12:09:00;6.55;;;1.60;;
5696;SDS011;2873;50.966;7.210;2023-09-19T12:11:31;4.47;;;1.40;;
5696;SDS011;2873;50.966;7.210;2023-09-19T12:13:58;5.37;;;1.80;;
5696;SDS011;2873;50.966;7.210;2023-09-19T12:16:25;2.60;;;1.40;;
5696;SDS011;2873;50.966;7.210;2023-09-19T12:18:55;4.00;;;1.40;;
5696;SDS011;2873;50.966;7.210;2023-09-19T12:23:58;4.93;;;1.50;;
5696;SDS011;2873;50.966;7.210;2023-09-19T12:26:29;3.25;;;1.40;;
5696;SDS011;2873;50.966;7.210;2023-09-19T12:28:58;2.58;;;1.08;;
5696;SDS011;2873;50.966;7.210;2023-09-19T12:31:26;3.88;;;1.60;;
5696;SDS011;2873;50.966;7.210;2023-09-19T12:33:53;3.90;;;1.20;;
5696;SDS011;2873;50.966;7.210;2023-09-19T12:36:23;3.70;;;1.10;;
5696;SDS011;2873;50.966;7.210;2023-09-19T12:38:58;2.38;;;1.40;;
5696;SDS011;2873;50.966;7.210;2023-09-19T12:41:24;5.30;;;1.42;;
5696;SDS011;2873;50.966;7.210;2023-09-19T12:43:51;3.10;;;1.10;;
5696;SDS011;2873;50.966;7.210;2023-09-19T12:46:22;2.80;;;1.40;;
5696;SDS011;2873;50.966;7.210;2023-09-19T12:51:42;3.20;;;1.25;;
5696;SDS011;2873;50.966;7.210;2023-09-19T12:54:09;4.50;;;1.70;;
5696;SDS011;2873;50.966;7.210;2023-09-19T12:56:42;3.33;;;1.20;;
5696;SDS011;2873;50.966;7.210;2023-09-19T12:59:14;3.85;;;1.25;;
5696;SDS011;2873;50.966;7.210;2023-09-19T13:01:40;7.00;;;1.40;;
5696;SDS011;2873;50.966;7.210;2023-09-19T13:04:18;1.90;;;1.10;;
5696;SDS011;2873;50.966;7.210;2023-09-19T13:06:48;2.83;;;1.20;;
5696;SDS011;2873;50.966;7.210;2023-09-19T13:09:15;2.72;;;1.27;;
5696;SDS011;2873;50.966;7.210;2023-09-19T13:11:42;2.03;;;0.95;;
5696;SDS011;2873;50.966;7.210;2023-09-19T13:14:14;2.00;;;1.30;;
5696;SDS011;2873;50.966;7.210;2023-09-19T13:25:03;2.25;;;1.15;;
5696;SDS011;2873;50.966;7.210;2023-09-19T13:27:31;1.95;;;1.25;;
5696;SDS011;2873;50.966;7.210;2023-09-19T13:29:58;4.35;;;1.20;;
5696;SDS011;2873;50.966;7.210;2023-09-19T13:32:23;1.17;;;0.80;;
5696;SDS011;2873;50.966;7.210;2023-09-19T13:34:49;2.70;;;1.00;;
5696;SDS011;2873;50.966;7.210;2023-09-19T13:37:16;3.38;;;1.08;;
5696;SDS011;2873;50.966;7.210;2023-09-19T13:39:43;3.83;;;1.30;;
5696;SDS011;2873;50.966;7.210;2023-09-19T13:42:12;5.28;;;1.10;;
5696;SDS011;2873;50.966;7.210;2023-09-19T13:44:38;5.80;;;0.90;;
5696;SDS011;2873;50.966;7.210;2023-09-19T13:47:06;5.30;;;1.50;;
5696;SDS011;2873;50.966;7.210;2023-09-19T13:49:34;5.13;;;1.10;;
5696;SDS011;2873;50.966;7.210;2023-09-19T13:52:01;1.70;;;0.98;;
5696;SDS011;2873;50.966;7.210;2023-09-19T13:54:30;2.60;;;1.20;;
5696;SDS011;2873;50.966;7.210;2023-09-19T13:56:56;2.00;;;0.73;;
5696;SDS011;2873;50.966;7.210;2023-09-19T13:59:21;4.32;;;1.40;;
5696;SDS011;2873;50.966;7.210;2023-09-19T14:01:48;2.35;;;1.30;;
5696;SDS011;2873;50.966;7.210;2023-09-19T14:04:15;3.88;;;1.10;;
5696;SDS011;2873;50.966;7.210;2023-09-19T14:06:42;1.13;;;0.90;;
5696;SDS011;2873;50.966;7.210;2023-09-19T14:09:07;2.05;;;1.05;;
5696;SDS011;2873;50.966;7.210;2023-09-19T14:11:34;2.50;;;1.02;;
5696;SDS011;2873;50.966;7.210;2023-09-19T14:13:59;1.10;;;0.80;;
5696;SDS011;2873;50.966;7.210;2023-09-19T14:16:25;4.22;;;1.23;;
5696;SDS011;2873;50.966;7.210;2023-09-19T14:18:55;1.30;;;0.88;;
5696;SDS011;2873;50.966;7.210;2023-09-19T14:21:20;2.80;;;0.80;;
5696;SDS011;2873;50.966;7.210;2023-09-19T14:23:46;1.90;;;0.70;;
5696;SDS011;2873;50.966;7.210;2023-09-19T14:26:11;3.40;;;0.87;;
5696;SDS011;2873;50.966;7.210;2023-09-19T14:28:37;4.10;;;1.00;;
5696;SDS011;2873;50.966;7.210;2023-09-19T14:31:07;3.10;;;0.97;;
5696;SDS011;2873;50.966;7.210;2023-09-19T14:33:34;4.50;;;0.90;;
5696;SDS011;2873;50.966;7.210;2023-09-19T14:36:07;2.78;;;0.85;;
5696;SDS011;2873;50.966;7.210;2023-09-19T14:38:35;2.20;;;1.15;;
5696;SDS011;2873;50.966;7.210;2023-09-19T14:41:02;4.60;;;1.05;;
5696;SDS011;2873;50.966;7.210;2023-09-19T14:43:29;1.10;;;0.75;;
5696;SDS011;2873;50.966;7.210;2023-09-19T14:46:04;6.75;;;0.90;;
5696;SDS011;2873;50.966;7.210;2023-09-19T14:48:32;2.50;;;0.90;;
5696;SDS011;2873;50.966;7.210;2023-09-19T14:51:05;2.77;;;1.10;;
5696;SDS011;2873;50.966;7.210;2023-09-19T14:53:34;2.60;;;0.80;;
5696;SDS011;2873;50.966;7.210;2023-09-19T14:56:00;3.80;;;0.70;;
5696;SDS011;2873;50.966;7.210;2023-09-19T14:58:28;1.70;;;0.70;;
5696;SDS011;2873;50.966;7.210;2023-09-19T15:01:01;2.95;;;1.00;;
5696;SDS011;2873;50.966;7.210;2023-09-19T15:03:31;1.20;;;0.90;;
5696;SDS011;2873;50.966;7.210;2023-09-19T15:06:01;2.92;;;0.90;;
5696;SDS011;2873;50.966;7.210;2023-09-19T15:08:29;1.70;;;0.70;;
5696;SDS011;2873;50.966;7.210;2023-09-19T15:10:55;1.50;;;0.80;;
5696;SDS011;2873;50.966;7.210;2023-09-19T15:13:23;4.60;;;0.70;;
5696;SDS011;2873;50.966;7.210;2023-09-19T15:15:53;1.30;;;0.60;;
5696;SDS011;2873;50.966;7.210;2023-09-19T15:18:29;1.60;;;0.60;;
5696;SDS011;2873;50.966;7.210;2023-09-19T15:20:55;1.90;;;0.90;;
5696;SDS011;2873;50.966;7.210;2023-09-19T15:23:21;1.92;;;0.80;;
5696;SDS011;2873;50.966;7.210;2023-09-19T15:25:48;3.07;;;0.70;;
5696;SDS011;2873;50.966;7.210;2023-09-19T15:28:14;1.30;;;0.90;;
5696;SDS011;2873;50.966;7.210;2023-09-19T15:30:40;1.08;;;0.77;;
5696;SDS011;2873;50.966;7.210;2023-09-19T15:33:05;2.90;;;0.60;;
5696;SDS011;2873;50.966;7.210;2023-09-19T15:35:31;3.00;;;0.80;;
5696;SDS011;2873;50.966;7.210;2023-09-19T15:37:56;1.20;;;0.60;;
5696;SDS011;2873;50.966;7.210;2023-09-19T15:40:23;2.23;;;0.77;;
5696;SDS011;2873;50.966;7.210;2023-09-19T15:42:50;1.58;;;0.80;;
5696;SDS011;2873;50.966;7.210;2023-09-19T15:45:15;4.93;;;0.80;;
5696;SDS011;2873;50.966;7.210;2023-09-19T15:47:43;2.20;;;0.80;;
5696;SDS011;2873;50.966;7.210;2023-09-19T15:50:09;2.03;;;0.93;;
5696;SDS011;2873;50.966;7.210;2023-09-19T15:52:38;2.40;;;0.80;;
5696;SDS011;2873;50.966;7.210;2023-09-19T15:55:05;2.72;;;1.00;;
5696;SDS011;2873;50.966;7.210;2023-09-19T15:57:37;2.10;;;0.90;;
5696;SDS011;2873;50.966;7.210;2023-09-19T16:00:03;2.10;;;0.80;;
5696;SDS011;2873;50.966;7.210;2023-09-19T16:02:35;1.80;;;0.60;;
5696;SDS011;2873;50.966;7.210;2023-09-19T16:05:01;2.22;;;0.70;;
5696;SDS011;2873;50.966;7.210;2023-09-19T16:07:28;5.07;;;0.80;;
5696;SDS011;2873;50.966;7.210;2023-09-19T16:09:55;3.90;;;0.80;;